Littlefork, Minnesota
Current Conditions -  °F | °C
As of 2:44 AM on Saturday 20 Dec 2014 (Local Time) from KINL Reporting Station
Light Snow Light Snow  
Wind Chill: 18°   Ceiling: 4100
Heat Index: 25°   Visibility: 1.7mi
Dew Point: 22°   Wind: 6mph
Humidity: 88%   Direction: 150°SSE
Pressure: 30.06"   Gusts: NA
Location:  48.4°N, 93.56°W
Report Text: KINL 200844Z AUTO 15005KT 1 3/4SM -SN BR OVC041 M04/M06 A3006 RMK AO2 SNB05 P0001 T10391056
Loading
Personal Weather Stations






























Interactive Weather Map New forecast layout! Learn more

10-Day Weather Forecast

Advertisements
Track Severe Weather on mobile